Decoded Metar for KPDT (PENDLETON in OR, USA) (IATA:PDT) | Meteo·Mobile Aviation Weather
aviador You're here:

KPDT Decoded Metar

PENDLETON in OR, USA
Report Time2018-09-22 09:53:00
UTC Time2018-09-22 10:44:02
Flight Rules vfr VFR
Wind200° at 04 kt
W.Decomp.*RWY 16: 3.7 kt HW 1.6 kt RCW
RWY 25: 1.6 kt HW 3.7 kt LCW
RWY 11: 1.1 kt HW 3.8 kt RCW
W.Rank200° ranks 20
Current wind is below 200° avg. (7.3)
Visibility9999 m
Phenomena:N/A
Clouds:N/A
Expected CloudBase > 4,800 ft AGL from Temp-Dew spread
CeilingNone
Temp18°C (ISA +6)
Dew Point06°C (46% RH)
AAT15.7°C
QNH1013 hPa
Density Alt2,352 ft
Elevation1,516 ft
Report Wrong Elevation
Raw Report
KPDT 220953Z AUTO 20004KT 10SM CLR 18/06 A2991 RMK AO2 SLP112
T01780056=

Extra information for KPDT:More info

Metar Taf Metar & Taf Last 4 Metars F.Rules Stats Wind Profile Meteogram Temp Stats Airport Information Weather charts Add Link Nearby VenuesMetar ALERT Operation Metar Decoded Social comments

AIRNAV info for KPDT